Time;durP1;ratioP1;P1;durP2;ratioP2;P2;SDS_P1;SDS_P2;PMS_P1;PMS_P2;Temp;Humidity;BMP_temperature;BMP_pressure;BME280_temperature;BME280_humidity;BME280_pressure;Samples;Min_cycle;Max_cycle;Signal;HPM_P1;HPM_P2
2021/04/02 00:01:09;;;;;;;4.82;2.75;;;14.50;61.10;;;;;;6223973;23;20115;-60
2021/04/02 00:03:54;;;;;;;6.20;2.95;;;14.40;61.30;;;;;;6221967;23;20012;-61
2021/04/02 00:06:38;;;;;;;7.93;3.10;;;14.30;61.90;;;;;;6207756;23;20315;-60
2021/04/02 00:09:22;;;;;;;7.15;3.05;;;14.30;61.80;;;;;;6233056;23;20012;-60
2021/04/02 00:12:07;;;;;;;9.98;3.20;;;14.30;61.90;;;;;;6236229;23;20034;-61
2021/04/02 00:14:51;;;;;;;10.68;2.65;;;14.30;62.10;;;;;;6224513;23;20028;-61
2021/04/02 00:17:36;;;;;;;8.98;3.33;;;14.20;62.20;;;;;;6225177;23;20016;-61
2021/04/02 00:20:20;;;;;;;8.20;2.92;;;14.30;62.10;;;;;;6225001;23;20020;-61
2021/04/02 00:23:08;;;;;;;8.88;3.35;;;14.30;62.20;;;;;;6226385;23;20015;-61
2021/04/02 00:25:52;;;;;;;7.55;3.13;;;14.30;62.10;;;;;;6227069;23;20327;-61
2021/04/02 00:28:36;;;;;;;6.07;2.75;;;14.20;62.10;;;;;;6228145;23;20015;-61
2021/04/02 00:31:21;;;;;;;7.70;3.15;;;14.20;62.00;;;;;;6229625;23;20104;-61
2021/04/02 00:34:06;;;;;;;8.00;3.20;;;14.10;62.30;;;;;;6223895;23;20055;-60
2021/04/02 00:36:50;;;;;;;7.97;3.13;;;14.20;62.20;;;;;;6224319;23;20008;-60
2021/04/02 00:39:35;;;;;;;12.52;3.10;;;14.20;62.10;;;;;;6232594;23;20011;-60
2021/04/02 00:42:19;;;;;;;7.43;2.92;;;14.10;62.50;;;;;;6233495;23;20014;-60
2021/04/02 00:45:04;;;;;;;8.95;3.50;;;14.00;62.50;;;;;;6236262;23;20059;-61
2021/04/02 00:47:50;;;;;;;6.20;3.10;;;14.00;62.20;;;;;;6224540;23;20353;-61
2021/04/02 00:50:50;;;;;;;8.38;3.10;;;13.90;62.90;;;;;;6224124;23;20264;-61
2021/04/02 00:53:38;;;;;;;6.57;3.30;;;13.90;62.40;;;;;;6223936;23;20019;-61
2021/04/02 00:56:22;;;;;;;7.80;3.20;;;13.80;63.10;;;;;;6176241;23;20011;-61
2021/04/02 00:59:08;;;;;;;9.70;3.35;;;13.80;63.30;;;;;;6219891;23;20295;-60
2021/04/02 01:01:52;;;;;;;6.57;3.33;;;13.60;63.10;;;;;;6205432;23;20011;-61
2021/04/02 01:04:36;;;;;;;5.78;3.03;;;13.60;63.70;;;;;;6187947;23;20011;-61
2021/04/02 01:07:21;;;;;;;7.05;3.10;;;13.70;63.60;;;;;;6213852;23;20007;-61
2021/04/02 01:10:13;;;;;;;9.98;3.92;;;13.80;63.30;;;;;;6223954;23;20023;-61
2021/04/02 01:13:07;;;;;;;7.65;3.25;;;13.90;62.80;;;;;;6223631;23;20076;-61
2021/04/02 01:16:14;;;;;;;12.90;3.97;;;13.60;63.50;;;;;;6231314;23;20007;-60
2021/04/02 01:19:23;;;;;;;7.80;3.10;;;13.70;64.10;;;;;;6223939;23;20284;-60
2021/04/02 01:22:22;;;;;;;6.68;2.85;;;13.60;63.90;;;;;;6209737;23;20007;-61
2021/04/02 01:25:47;;;;;;;9.98;3.40;;;13.70;63.90;;;;;;6197973;23;20188;-60
2021/04/02 01:28:50;;;;;;;7.68;3.22;;;13.70;63.80;;;;;;6100719;23;20017;-61
2021/04/02 01:31:35;;;;;;;6.90;3.10;;;13.60;63.70;;;;;;6208790;23;20028;-60
2021/04/02 01:34:21;;;;;;;8.18;3.25;;;13.50;64.00;;;;;;6208548;23;20020;-60
2021/04/02 01:37:10;;;;;;;8.60;2.90;;;13.40;64.40;;;;;;6232204;23;20007;-61
2021/04/02 01:39:56;;;;;;;8.43;2.97;;;13.40;64.00;;;;;;6210373;23;20050;-61
2021/04/02 01:42:41;;;;;;;8.93;3.10;;;13.40;63.40;;;;;;6203418;23;20046;-60
2021/04/02 01:45:26;;;;;;;6.53;2.95;;;13.30;64.00;;;;;;6212246;23;20012;-60
2021/04/02 01:48:11;;;;;;;6.85;3.15;;;13.10;64.10;;;;;;6215257;23;20236;-61
2021/04/02 01:50:55;;;;;;;9.90;3.50;;;12.80;65.30;;;;;;6203785;23;20326;-61
2021/04/02 01:53:42;;;;;;;6.75;3.38;;;12.80;65.40;;;;;;6203655;23;20112;-61
2021/04/02 01:56:26;;;;;;;7.63;3.17;;;12.80;65.00;;;;;;6203965;23;20011;-61
2021/04/02 01:59:11;;;;;;;7.30;3.08;;;12.80;65.20;;;;;;6163733;23;20321;-60
2021/04/02 02:01:56;;;;;;;7.50;3.20;;;12.80;65.40;;;;;;6173439;23;20068;-60
2021/04/02 02:04:40;;;;;;;6.55;3.22;;;12.80;65.60;;;;;;6195440;23;20008;-61
2021/04/02 02:07:24;;;;;;;10.50;3.30;;;12.80;65.50;;;;;;6208010;23;20011;-60
2021/04/02 02:10:09;;;;;;;8.77;3.42;;;12.90;64.90;;;;;;6209059;23;20322;-60
2021/04/02 02:12:53;;;;;;;10.30;4.00;;;12.80;64.80;;;;;;6194142;23;20044;-60
2021/04/02 02:15:38;;;;;;;8.15;3.70;;;12.40;66.00;;;;;;6186715;23;20047;-60
2021/04/02 02:18:24;;;;;;;10.68;4.25;;;12.40;66.30;;;;;;6200219;23;20279;-61
2021/04/02 02:21:12;;;;;;;10.95;3.83;;;12.60;66.00;;;;;;6185728;23;20061;-61
2021/04/02 02:23:56;;;;;;;9.48;4.30;;;12.70;65.50;;;;;;6225682;23;20055;-61
2021/04/02 02:26:41;;;;;;;12.95;4.35;;;12.50;65.70;;;;;;6203434;23;20276;-60
2021/04/02 02:29:25;;;;;;;9.15;3.80;;;12.50;65.80;;;;;;6226566;23;20035;-61
2021/04/02 02:32:09;;;;;;;13.32;3.83;;;12.60;65.80;;;;;;6226916;23;20047;-61
2021/04/02 02:34:54;;;;;;;10.40;4.05;;;12.60;65.30;;;;;;6228175;23;20063;-61
2021/04/02 02:37:39;;;;;;;8.48;4.00;;;12.40;65.60;;;;;;6228978;23;20011;-61
2021/04/02 02:40:25;;;;;;;9.35;3.88;;;12.00;66.50;;;;;;6215103;23;20016;-60
2021/04/02 02:43:10;;;;;;;9.10;3.80;;;12.10;66.80;;;;;;6213274;23;20007;-60
2021/04/02 02:45:54;;;;;;;8.85;4.07;;;12.20;66.60;;;;;;6232017;23;20007;-60
2021/04/02 02:48:41;;;;;;;10.88;4.47;;;12.20;66.20;;;;;;6233517;23;20064;-60
2021/04/02 02:51:30;;;;;;;11.90;4.57;;;12.00;66.90;;;;;;6211915;23;20011;-60
2021/04/02 02:54:17;;;;;;;10.32;4.65;;;12.10;66.80;;;;;;6214755;23;20358;-61
2021/04/02 02:57:03;;;;;;;15.48;4.63;;;12.10;66.10;;;;;;6225267;23;20015;-61
2021/04/02 02:59:49;;;;;;;9.25;4.82;;;12.30;65.90;;;;;;6203573;23;20055;-61
2021/04/02 03:02:33;;;;;;;9.05;4.82;;;12.10;66.10;;;;;;6203412;23;20015;-60
2021/04/02 03:05:19;;;;;;;13.18;5.32;;;11.80;66.20;;;;;;6203879;23;20322;-61
2021/04/02 03:08:04;;;;;;;12.90;5.40;;;11.70;67.50;;;;;;6205237;23;20011;-61
2021/04/02 03:10:48;;;;;;;10.68;5.03;;;11.90;67.10;;;;;;6202492;23;20239;-61
2021/04/02 03:13:32;;;;;;;10.57;5.55;;;11.90;66.60;;;;;;6206433;23;20207;-61
2021/04/02 03:16:17;;;;;;;11.98;5.47;;;11.80;67.50;;;;;;6207843;23;20243;-60
2021/04/02 03:19:01;;;;;;;13.13;5.65;;;11.60;67.20;;;;;;6202211;23;20028;-60
2021/04/02 03:21:46;;;;;;;11.50;6.68;;;11.50;67.80;;;;;;6209875;23;20007;-60
2021/04/02 03:24:29;;;;;;;14.20;5.85;;;11.50;67.70;;;;;;6211192;23;20015;-60
2021/04/02 03:27:14;;;;;;;10.00;5.38;;;11.80;67.30;;;;;;6214437;23;20011;-61
2021/04/02 03:29:58;;;;;;;16.00;6.18;;;11.70;66.90;;;;;;6202743;23;20208;-60
2021/04/02 03:32:44;;;;;;;12.45;5.97;;;11.60;67.20;;;;;;6224927;23;20055;-61
2021/04/02 03:35:29;;;;;;;12.80;5.68;;;11.60;67.10;;;;;;6202714;23;20314;-61
2021/04/02 03:38:14;;;;;;;10.98;5.72;;;11.40;67.60;;;;;;6204088;23;20012;-60
2021/04/02 03:40:59;;;;;;;13.07;5.72;;;11.30;67.70;;;;;;6227438;23;20067;-61
2021/04/02 03:43:45;;;;;;;12.05;6.13;;;11.30;67.80;;;;;;6205174;23;20055;-60
2021/04/02 03:46:29;;;;;;;13.80;6.32;;;11.50;67.50;;;;;;6207293;23;20020;-61
2021/04/02 03:49:15;;;;;;;15.27;6.53;;;11.40;67.70;;;;;;6207954;23;20012;-61
2021/04/02 03:52:04;;;;;;;15.38;6.82;;;11.30;67.70;;;;;;6208629;23;20239;-60
2021/04/02 03:54:48;;;;;;;17.17;7.18;;;11.50;67.40;;;;;;6224377;23;20011;-60
2021/04/02 03:57:33;;;;;;;19.27;7.20;;;11.50;67.40;;;;;;6228445;23;20016;-60
2021/04/02 04:00:24;;;;;;;15.55;6.63;;;11.40;67.50;;;;;;6184309;23;20055;-61
2021/04/02 04:03:09;;;;;;;13.48;6.53;;;11.50;67.10;;;;;;6173717;23;20043;-60
2021/04/02 04:05:55;;;;;;;12.80;6.72;;;11.50;67.00;;;;;;6203104;23;20046;-61
2021/04/02 04:08:39;;;;;;;14.73;7.20;;;11.30;67.10;;;;;;6224846;23;20046;-60
2021/04/02 04:11:24;;;;;;;16.50;7.65;;;11.20;67.30;;;;;;6203267;23;20006;-60
2021/04/02 04:14:08;;;;;;;14.25;6.85;;;10.90;68.20;;;;;;6179525;23;20024;-61
2021/04/02 04:16:53;;;;;;;14.88;7.00;;;11.00;68.70;;;;;;6196532;23;20224;-60
2021/04/02 04:19:37;;;;;;;15.05;7.18;;;10.90;68.10;;;;;;6205939;23;20012;-61
2021/04/02 04:22:21;;;;;;;14.15;7.25;;;10.90;68.40;;;;;;6201979;23;20087;-60
2021/04/02 04:25:07;;;;;;;14.23;6.57;;;10.90;68.70;;;;;;6197314;23;20012;-60
2021/04/02 04:27:52;;;;;;;16.73;7.20;;;11.10;68.00;;;;;;6187564;23;20240;-60
2021/04/02 04:30:38;;;;;;;17.65;7.15;;;11.10;67.90;;;;;;6201930;23;20307;-61
2021/04/02 04:33:23;;;;;;;16.67;7.00;;;11.10;66.90;;;;;;6211365;23;20012;-60
2021/04/02 04:36:07;;;;;;;20.05;7.80;;;10.80;68.00;;;;;;6204466;23;20007;-60
2021/04/02 04:38:52;;;;;;;21.20;7.65;;;10.60;69.20;;;;;;6218680;23;20016;-60
2021/04/02 04:41:36;;;;;;;16.05;6.82;;;10.50;68.90;;;;;;6202512;23;20365;-61
2021/04/02 04:44:21;;;;;;;14.48;7.22;;;10.70;69.20;;;;;;6203539;23;20075;-61
2021/04/02 04:47:05;;;;;;;13.10;6.60;;;10.80;68.40;;;;;;6180471;23;20076;-60
2021/04/02 04:49:49;;;;;;;14.60;7.15;;;10.90;68.10;;;;;;6217657;23;20064;-61
2021/04/02 04:52:37;;;;;;;17.63;7.22;;;11.00;67.70;;;;;;6224393;23;20012;-60
2021/04/02 04:55:21;;;;;;;16.23;7.50;;;10.80;67.40;;;;;;6208165;23;20307;-60
2021/04/02 04:58:08;;;;;;;15.65;7.40;;;10.40;68.70;;;;;;6210113;23;20008;-60
2021/04/02 05:00:52;;;;;;;14.38;7.10;;;10.40;68.90;;;;;;6225072;23;20052;-60
2021/04/02 05:03:36;;;;;;;13.13;6.60;;;10.70;68.70;;;;;;6181987;23;20020;-60
2021/04/02 05:06:21;;;;;;;16.45;7.80;;;10.80;68.30;;;;;;6197963;23;20008;-60
2021/04/02 05:09:06;;;;;;;14.73;7.78;;;10.80;68.10;;;;;;6238253;23;20048;-60
2021/04/02 05:11:49;;;;;;;18.15;8.02;;;10.80;68.20;;;;;;6174096;23;20073;-60
2021/04/02 05:14:34;;;;;;;20.63;8.82;;;10.70;67.90;;;;;;6173646;23;20020;-60
2021/04/02 05:17:19;;;;;;;15.70;8.95;;;10.30;69.00;;;;;;6201369;23;20016;-61
2021/04/02 05:20:04;;;;;;;21.73;8.40;;;10.20;70.00;;;;;;6205644;23;20012;-60
2021/04/02 05:22:48;;;;;;;16.92;8.68;;;10.20;70.00;;;;;;6183445;23;20016;-61
2021/04/02 05:25:32;;;;;;;18.30;8.20;;;10.30;69.40;;;;;;6217099;23;20032;-60
2021/04/02 05:28:16;;;;;;;21.00;8.80;;;10.30;70.60;;;;;;6231353;23;20011;-61
2021/04/02 05:31:00;;;;;;;19.70;8.38;;;10.60;69.80;;;;;;6225445;23;20011;-60
2021/04/02 05:33:45;;;;;;;18.27;9.00;;;10.70;69.10;;;;;;6233511;23;20081;-60
2021/04/02 05:36:29;;;;;;;19.73;9.80;;;10.80;69.10;;;;;;6203385;23;20243;-51
2021/04/02 05:39:13;;;;;;;23.20;9.77;;;10.80;68.70;;;;;;6237969;23;20016;-51
2021/04/02 05:42:02;;;;;;;26.80;10.68;;;10.60;69.20;;;;;;6195988;23;20036;-52
2021/04/02 05:44:47;;;;;;;19.65;10.77;;;10.50;70.00;;;;;;6203943;23;20080;-51
2021/04/02 05:47:31;;;;;;;19.50;9.07;;;10.60;70.00;;;;;;6225926;23;20055;-51
2021/04/02 05:50:15;;;;;;;20.15;9.07;;;10.50;70.10;;;;;;6227674;23;20030;-54
2021/04/02 05:53:07;;;;;;;19.80;9.10;;;10.70;70.50;;;;;;6205084;23;20015;-50
2021/04/02 05:55:52;;;;;;;19.27;9.68;;;11.00;70.10;;;;;;6189276;23;20249;-50
2021/04/02 05:58:36;;;;;;;18.45;9.27;;;11.10;69.80;;;;;;6207357;23;20027;-50
2021/04/02 06:01:20;;;;;;;19.33;9.65;;;11.10;69.70;;;;;;6225110;23;20073;-50
2021/04/02 06:04:04;;;;;;;22.50;10.45;;;11.20;69.50;;;;;;6231781;23;20012;-54
2021/04/02 06:06:48;;;;;;;29.98;13.65;;;11.00;70.10;;;;;;6232492;23;20326;-53
2021/04/02 06:09:33;;;;;;;37.42;17.33;;;11.30;69.60;;;;;;6234127;23;20065;-52
2021/04/02 06:12:17;;;;;;;44.58;21.42;;;11.40;69.10;;;;;;6225165;23;20046;-54
2021/04/02 06:15:03;;;;;;;47.80;25.58;;;11.40;69.00;;;;;;6237601;23;20370;-53
2021/04/02 06:18:08;;;;;;;52.75;26.48;;;11.40;69.00;;;;;;6225087;23;20017;-52
2021/04/02 06:20:53;;;;;;;56.78;28.35;;;11.40;68.00;;;;;;6225701;23;20378;-52
2021/04/02 06:23:37;;;;;;;52.90;30.05;;;11.60;67.70;;;;;;6203351;23;20319;-54
2021/04/02 06:26:21;;;;;;;49.65;28.17;;;11.70;67.30;;;;;;6226576;23;20015;-54
2021/04/02 06:29:06;;;;;;;51.60;28.77;;;11.70;67.70;;;;;;6205154;23;20019;-50
2021/04/02 06:31:50;;;;;;;51.40;28.10;;;11.70;67.50;;;;;;6228411;23;20055;-50
2021/04/02 06:34:35;;;;;;;57.25;29.42;;;11.70;68.00;;;;;;6229485;23;20012;-53
2021/04/02 06:37:19;;;;;;;56.00;29.33;;;12.00;66.90;;;;;;6202205;23;20020;-53
2021/04/02 06:40:30;;;;;;;55.20;30.13;;;12.00;66.40;;;;;;6231564;23;20262;-54
2021/04/02 06:43:14;;;;;;;52.85;29.00;;;12.20;65.60;;;;;;6187235;23;20314;-53
2021/04/02 06:46:04;;;;;;;54.53;30.45;;;12.10;66.30;;;;;;6231517;23;20307;-53
2021/04/02 06:48:49;;;;;;;53.00;29.15;;;12.10;65.60;;;;;;6224829;23;20314;-49
2021/04/02 06:51:35;;;;;;;56.10;31.35;;;12.30;65.30;;;;;;6211395;23;20007;-51
2021/04/02 06:54:24;;;;;;;47.00;28.02;;;12.30;64.50;;;;;;6202483;23;20051;-54
2021/04/02 06:57:08;;;;;;;40.17;25.35;;;12.00;64.50;;;;;;6236903;23;20302;-53
2021/04/02 06:59:52;;;;;;;38.25;23.33;;;12.10;63.50;;;;;;6202934;23;20047;-53
2021/04/02 07:02:37;;;;;;;36.80;23.55;;;11.90;63.10;;;;;;6225163;23;20019;-53
2021/04/02 07:05:22;;;;;;;41.40;24.67;;;12.10;64.30;;;;;;6203759;23;20065;-52
2021/04/02 07:08:07;;;;;;;44.10;25.33;;;11.90;63.80;;;;;;6226618;23;20032;-53
2021/04/02 07:10:51;;;;;;;41.83;24.38;;;11.90;63.80;;;;;;6227816;23;20031;-51
2021/04/02 07:13:52;;;;;;;44.42;25.45;;;11.80;63.60;;;;;;6228585;23;20080;-53
2021/04/02 07:16:36;;;;;;;48.70;27.02;;;11.80;63.60;;;;;;6204279;23;20051;-52
2021/04/02 07:19:20;;;;;;;46.28;25.55;;;11.80;63.20;;;;;;6207211;23;20323;-53
2021/04/02 07:22:04;;;;;;;48.75;25.88;;;11.80;64.40;;;;;;6219758;23;20008;-50
2021/04/02 07:24:48;;;;;;;49.30;27.80;;;11.90;63.20;;;;;;6179911;23;20027;-52
2021/04/02 07:27:34;;;;;;;40.80;24.70;;;11.60;63.40;;;;;;6210522;23;20007;-51
2021/04/02 07:30:20;;;;;;;46.10;25.50;;;11.90;64.40;;;;;;6233966;23;20111;-52
2021/04/02 07:33:06;;;;;;;48.03;25.65;;;11.80;64.00;;;;;;6204489;23;20203;-54
2021/04/02 07:36:01;;;;;;;43.10;25.13;;;11.60;64.80;;;;;;6202827;23;20031;-54
2021/04/02 07:38:49;;;;;;;48.03;26.55;;;11.80;64.10;;;;;;6203039;23;20195;-54
2021/04/02 07:41:54;;;;;;;49.42;26.75;;;11.90;64.00;;;;;;6225331;23;20027;-54
2021/04/02 07:44:45;;;;;;;46.97;25.77;;;11.90;63.10;;;;;;6224779;23;20020;-51
2021/04/02 07:47:29;;;;;;;48.85;26.60;;;11.90;64.10;;;;;;6225133;23;20140;-53
2021/04/02 07:50:14;;;;;;;41.22;24.77;;;11.90;63.40;;;;;;6181496;23;20188;-55
2021/04/02 07:52:58;;;;;;;45.65;25.48;;;11.90;64.40;;;;;;6227425;23;20081;-53
2021/04/02 07:56:15;;;;;;;46.33;25.90;;;11.80;64.60;;;;;;6206041;23;20024;-54
2021/04/02 07:59:03;;;;;;;48.17;26.08;;;11.90;64.90;;;;;;6226960;23;20016;-54
2021/04/02 08:01:58;;;;;;;45.90;26.23;;;11.50;64.30;;;;;;6206153;23;20012;-54
2021/04/02 08:04:52;;;;;;;44.17;24.85;;;11.60;64.40;;;;;;6224729;23;20012;-55
2021/04/02 08:07:40;;;;;;;43.53;24.95;;;11.80;64.60;;;;;;6211754;23;20048;-55
2021/04/02 08:10:25;;;;;;;46.22;24.98;;;11.80;65.00;;;;;;6214272;23;20122;-52
2021/04/02 08:13:16;;;;;;;43.20;24.50;;;11.50;64.80;;;;;;6223826;23;20020;-53
2021/04/02 08:16:00;;;;;;;;;;;11.60;64.10;;;;;;6225116;23;20183;-54
2021/04/02 08:19:07;;;;;;;44.25;26.38;;;11.70;63.70;;;;;;6230921;23;19944;-55
2021/04/02 08:21:56;;;;;;;46.03;26.15;;;11.50;63.40;;;;;;6231334;23;20375;-55
2021/04/02 08:24:47;;;;;;;41.30;24.88;;;11.70;64.50;;;;;;6224430;23;20012;-54
2021/04/02 08:27:31;;;;;;;44.97;25.77;;;11.80;64.50;;;;;;6232560;23;20019;-53
2021/04/02 08:30:17;;;;;;;40.72;24.13;;;11.80;64.10;;;;;;6225971;23;20011;-54
2021/04/02 08:33:01;;;;;;;37.10;22.63;;;11.90;63.60;;;;;;6201918;23;20020;-55
2021/04/02 08:35:45;;;;;;;38.22;23.67;;;11.80;62.70;;;;;;6224303;23;20291;-56
2021/04/02 08:38:29;;;;;;;35.30;22.73;;;11.60;62.90;;;;;;6225194;23;20016;-54
2021/04/02 08:41:30;;;;;;;40.30;22.88;;;11.80;62.80;;;;;;6225387;23;20015;-54
2021/04/02 08:44:13;;;;;;;40.45;23.13;;;11.90;62.90;;;;;;6225774;23;20043;-56
2021/04/02 08:47:03;;;;;;;38.08;23.23;;;12.10;62.40;;;;;;6201431;23;20020;-52
2021/04/02 08:49:56;;;;;;;40.17;24.05;;;11.90;63.60;;;;;;6224257;23;20015;-55
2021/04/02 08:52:40;;;;;;;39.72;24.23;;;11.80;64.20;;;;;;6228093;23;20108;-54
2021/04/02 08:55:26;;;;;;;38.35;23.90;;;11.80;63.30;;;;;;6209357;23;20052;-53
2021/04/02 08:58:10;;;;;;;44.10;24.75;;;11.80;62.60;;;;;;6211998;23;20061;-53
2021/04/02 09:00:54;;;;;;;40.70;23.30;;;11.70;63.50;;;;;;6208547;23;20007;-55
2021/04/02 09:03:38;;;;;;;40.47;22.95;;;11.90;63.50;;;;;;6209402;23;20042;-52
2021/04/02 09:06:22;;;;;;;40.50;24.45;;;12.10;62.60;;;;;;6233154;23;20011;-54
2021/04/02 09:09:16;;;;;;;37.58;23.05;;;11.50;62.90;;;;;;6225820;23;20364;-53
2021/04/02 09:12:11;;;;;;;45.90;23.85;;;11.30;64.20;;;;;;6224174;23;20016;-55
2021/04/02 09:14:55;;;;;;;40.30;23.77;;;11.40;64.00;;;;;;6194181;23;20056;-54
2021/04/02 09:17:40;;;;;;;45.83;24.60;;;11.50;64.50;;;;;;6224185;23;20020;-54
2021/04/02 09:20:24;;;;;;;42.22;24.15;;;11.70;63.60;;;;;;6224560;23;20059;-54
2021/04/02 09:23:09;;;;;;;42.28;24.25;;;11.60;64.20;;;;;;6203185;23;20031;-53
2021/04/02 09:25:53;;;;;;;44.60;25.58;;;11.90;63.90;;;;;;6223753;23;20012;-55
2021/04/02 09:28:38;;;;;;;44.50;25.63;;;11.90;62.70;;;;;;6227794;23;20016;-54
2021/04/02 09:31:23;;;;;;;45.00;26.52;;;12.10;63.20;;;;;;6223695;23;20096;-52
2021/04/02 09:34:09;;;;;;;52.83;27.40;;;11.90;63.90;;;;;;6229588;23;20036;-52
2021/04/02 09:36:53;;;;;;;48.20;26.02;;;12.20;63.60;;;;;;6221868;23;20063;-55
2021/04/02 09:39:40;;;;;;;41.28;25.92;;;12.30;63.00;;;;;;6156030;23;20011;-52
2021/04/02 09:42:25;;;;;;;52.95;27.75;;;12.40;61.90;;;;;;6212124;23;20051;-54
2021/04/02 09:45:10;;;;;;;45.47;25.05;;;12.00;62.70;;;;;;6237474;23;20043;-54
2021/04/02 09:47:55;;;;;;;46.40;24.92;;;12.20;62.50;;;;;;6225728;23;20015;-54
2021/04/02 09:50:39;;;;;;;41.28;22.52;;;12.40;61.30;;;;;;6203826;23;20185;-53
2021/04/02 09:53:23;;;;;;;42.72;24.83;;;12.40;61.30;;;;;;6204419;23;20066;-54
2021/04/02 09:56:07;;;;;;;36.92;23.20;;;12.40;61.50;;;;;;6227197;23;20051;-54
2021/04/02 09:58:51;;;;;;;37.22;22.98;;;12.40;62.90;;;;;;6228581;23;20196;-53
2021/04/02 10:01:37;;;;;;;35.88;21.98;;;12.50;61.90;;;;;;6229656;23;20028;-53
2021/04/02 10:04:22;;;;;;;33.50;20.90;;;12.60;61.40;;;;;;6230494;23;20016;-55
2021/04/02 10:07:06;;;;;;;37.65;21.73;;;12.70;60.50;;;;;;6231480;23;20216;-55
2021/04/02 10:09:50;;;;;;;31.67;20.30;;;12.50;60.80;;;;;;6232624;23;20011;-54
2021/04/02 10:12:34;;;;;;;36.13;20.40;;;12.80;60.40;;;;;;6233929;23;20023;-55
2021/04/02 10:15:19;;;;;;;34.50;20.38;;;12.80;59.80;;;;;;6234578;23;20246;-54
2021/04/02 10:18:03;;;;;;;31.38;18.75;;;12.40;60.40;;;;;;6227185;23;20012;-55
2021/04/02 10:20:48;;;;;;;31.83;20.48;;;12.80;60.00;;;;;;6225720;23;20012;-55
2021/04/02 10:23:32;;;;;;;34.70;20.65;;;13.00;58.50;;;;;;6226321;23;20043;-54
2021/04/02 10:26:17;;;;;;;38.50;20.33;;;13.30;58.80;;;;;;6225325;23;20084;-54
2021/04/02 10:29:01;;;;;;;40.65;21.27;;;13.20;57.30;;;;;;6227809;23;20318;-54
2021/04/02 10:31:45;;;;;;;34.10;19.42;;;12.80;58.00;;;;;;6228784;23;20015;-55
2021/04/02 10:34:30;;;;;;;35.80;20.13;;;13.10;59.10;;;;;;6229284;23;20253;-54
2021/04/02 10:37:14;;;;;;;36.25;20.90;;;13.30;57.90;;;;;;6230724;23;20031;-55
2021/04/02 10:39:58;;;;;;;34.30;21.33;;;13.80;57.60;;;;;;6231526;23;20007;-52
2021/04/02 10:42:42;;;;;;;42.08;22.55;;;13.60;57.00;;;;;;6202214;23;20015;-54
2021/04/02 10:45:27;;;;;;;37.35;21.05;;;13.40;55.30;;;;;;6233638;23;20054;-54
2021/04/02 10:48:11;;;;;;;39.78;21.63;;;13.60;55.40;;;;;;6236957;23;20199;-53
2021/04/02 10:50:55;;;;;;;37.13;22.02;;;13.90;56.50;;;;;;6225012;23;20062;-54
2021/04/02 10:53:39;;;;;;;38.22;21.15;;;14.30;56.60;;;;;;6224730;23;20367;-53
2021/04/02 10:56:24;;;;;;;43.08;21.52;;;14.60;54.00;;;;;;6226037;23;20183;-55
2021/04/02 10:59:08;;;;;;;39.55;22.25;;;14.90;55.60;;;;;;6226424;23;20241;-55
2021/04/02 11:01:52;;;;;;;40.72;22.65;;;15.20;54.80;;;;;;6227997;23;20028;-54
2021/04/02 11:04:40;;;;;;;41.05;22.10;;;15.40;53.10;;;;;;6228765;23;20049;-54
2021/04/02 11:07:24;;;;;;;39.55;23.35;;;15.40;52.40;;;;;;6205311;23;20095;-58
2021/04/02 11:10:09;;;;;;;40.40;23.85;;;15.30;51.80;;;;;;6200469;23;20016;-58
2021/04/02 11:12:53;;;;;;;37.47;23.25;;;15.30;54.50;;;;;;6194436;23;20016;-58
2021/04/02 11:15:38;;;;;;;40.35;23.70;;;15.50;54.30;;;;;;6193249;23;20008;-58
2021/04/02 11:18:22;;;;;;;42.83;23.80;;;15.60;52.80;;;;;;6203651;23;20012;-58
2021/04/02 11:21:06;;;;;;;41.72;23.90;;;15.80;52.30;;;;;;6206392;23;20008;-58
2021/04/02 11:23:50;;;;;;;42.78;24.20;;;15.80;51.40;;;;;;6194877;23;20016;-58
2021/04/02 11:26:34;;;;;;;35.58;22.77;;;15.50;51.70;;;;;;6194314;23;20016;-58
2021/04/02 11:29:19;;;;;;;32.00;21.08;;;15.60;51.50;;;;;;6216154;23;20016;-58
2021/04/02 11:32:07;;;;;;;36.13;21.38;;;15.80;51.50;;;;;;6196982;23;20047;-58
2021/04/02 11:34:51;;;;;;;35.00;21.05;;;16.00;51.20;;;;;;6194568;23;20291;-58
2021/04/02 11:37:35;;;;;;;31.48;20.55;;;16.00;50.70;;;;;;6194599;23;20016;-58
2021/04/02 11:40:20;;;;;;;32.35;19.23;;;16.10;50.20;;;;;;6199691;23;20067;-59
2021/04/02 11:43:04;;;;;;;32.50;20.73;;;16.20;50.80;;;;;;6200399;23;20192;-59
2021/04/02 11:45:48;;;;;;;34.40;20.98;;;16.20;48.10;;;;;;6201441;23;20028;-58
2021/04/02 11:48:33;;;;;;;30.77;19.50;;;16.30;50.20;;;;;;6202507;23;20009;-58
2021/04/02 11:51:17;;;;;;;30.08;19.42;;;16.10;48.30;;;;;;6193783;23;20071;-58
2021/04/02 11:54:02;;;;;;;31.17;18.83;;;16.20;48.80;;;;;;6205986;23;20039;-58
2021/04/02 11:56:47;;;;;;;25.13;17.30;;;16.30;49.50;;;;;;6194452;23;20012;-58
2021/04/02 11:59:31;;;;;;;27.63;16.90;;;16.50;49.30;;;;;;6194922;23;20047;-58
2021/04/02 12:02:15;;;;;;;26.75;18.10;;;16.60;49.10;;;;;;6195847;23;20016;-58
2021/04/02 12:04:59;;;;;;;30.38;18.73;;;16.70;47.90;;;;;;6196655;23;20012;-58
2021/04/02 12:07:44;;;;;;;30.02;19.98;;;16.50;48.80;;;;;;6197456;23;20024;-58
2021/04/02 12:10:28;;;;;;;29.45;19.35;;;16.70;47.40;;;;;;6197726;23;20012;-58
2021/04/02 12:13:12;;;;;;;31.30;19.30;;;16.80;47.60;;;;;;6199640;23;20111;-58
2021/04/02 12:15:56;;;;;;;33.40;20.23;;;16.90;48.70;;;;;;6193676;23;20016;-59
2021/04/02 12:18:41;;;;;;;28.25;17.98;;;17.10;47.40;;;;;;6171476;23;20008;-59
2021/04/02 12:21:25;;;;;;;28.27;18.00;;;17.30;48.10;;;;;;6193583;23;20011;-59
2021/04/02 12:24:10;;;;;;;29.48;18.75;;;17.40;47.40;;;;;;6195539;23;20016;-59
2021/04/02 12:26:54;;;;;;;27.67;17.58;;;17.40;44.70;;;;;;6194126;23;20318;-59
2021/04/02 12:29:38;;;;;;;28.10;17.73;;;17.40;45.40;;;;;;6194190;23;20024;-59
2021/04/02 12:32:23;;;;;;;26.10;17.17;;;17.40;46.40;;;;;;6194977;23;20016;-59
2021/04/02 12:35:08;;;;;;;28.33;17.50;;;17.40;47.50;;;;;;6195954;23;20200;-59
2021/04/02 12:37:52;;;;;;;28.25;16.88;;;16.80;47.20;;;;;;6193471;23;20104;-59
2021/04/02 12:40:37;;;;;;;24.27;17.10;;;16.90;46.80;;;;;;6194108;23;20052;-59
2021/04/02 12:43:21;;;;;;;26.73;17.15;;;16.90;46.60;;;;;;6192383;23;20109;-58
2021/04/02 12:46:05;;;;;;;25.63;17.55;;;16.70;47.10;;;;;;6199871;23;20004;-58
2021/04/02 12:48:49;;;;;;;25.58;17.70;;;16.60;47.70;;;;;;6192452;23;20069;-58
2021/04/02 12:51:33;;;;;;;25.98;16.92;;;16.50;47.90;;;;;;6202014;23;20008;-58
2021/04/02 12:54:18;;;;;;;26.55;16.13;;;16.30;48.00;;;;;;6202844;23;20080;-58
2021/04/02 12:57:02;;;;;;;27.98;17.75;;;16.30;48.60;;;;;;6205409;23;20028;-59
2021/04/02 12:59:46;;;;;;;29.27;17.73;;;16.40;47.80;;;;;;6193979;23;20012;-58
2021/04/02 13:02:30;;;;;;;30.75;18.60;;;16.50;47.80;;;;;;6194063;23;20065;-59
2021/04/02 13:05:14;;;;;;;27.75;17.88;;;16.40;48.10;;;;;;6194986;23;20036;-59
2021/04/02 13:07:59;;;;;;;29.33;17.52;;;16.60;48.70;;;;;;6196225;23;20020;-60
2021/04/02 13:10:43;;;;;;;25.45;17.48;;;16.60;47.90;;;;;;6197093;23;20013;-60
2021/04/02 13:13:27;;;;;;;28.13;17.30;;;16.80;47.90;;;;;;6198362;23;20072;-59
2021/04/02 13:16:12;;;;;;;26.13;16.80;;;16.80;47.60;;;;;;6200046;23;20003;-59
2021/04/02 13:18:57;;;;;;;29.35;17.25;;;16.80;48.50;;;;;;6202460;23;20306;-59
2021/04/02 13:21:41;;;;;;;29.55;17.88;;;16.50;47.90;;;;;;6194082;23;20008;-59
2021/04/02 13:24:25;;;;;;;28.33;17.17;;;16.80;47.60;;;;;;6203100;23;20310;-59
2021/04/02 13:27:09;;;;;;;24.58;16.58;;;16.80;46.50;;;;;;6207171;23;20028;-58
2021/04/02 13:29:53;;;;;;;25.80;17.05;;;16.90;45.50;;;;;;6195922;23;20016;-58
2021/04/02 13:32:42;;;;;;;24.38;16.30;;;17.10;46.70;;;;;;6195593;23;20319;-58
2021/04/02 13:35:27;;;;;;;21.48;14.55;;;17.20;46.40;;;;;;6196008;23;20028;-59
2021/04/02 13:38:12;;;;;;;25.27;16.15;;;17.20;46.10;;;;;;6197001;23;20028;-59
2021/04/02 13:40:56;;;;;;;24.38;15.65;;;17.30;45.30;;;;;;6195295;23;20048;-60
2021/04/02 13:43:40;;;;;;;24.52;13.90;;;17.30;46.00;;;;;;6195720;23;20062;-60
2021/04/02 13:46:25;;;;;;;20.80;13.52;;;17.30;45.40;;;;;;6199059;23;20015;-62
2021/04/02 13:49:09;;;;;;;25.33;14.68;;;17.40;45.00;;;;;;6201161;23;20024;-61
2021/04/02 13:51:53;;;;;;;22.35;14.30;;;17.40;44.90;;;;;;6201022;23;20044;-60
2021/04/02 13:54:37;;;;;;;25.13;13.90;;;17.30;44.80;;;;;;6203179;23;20016;-62
2021/04/02 13:57:23;;;;;;;19.15;13.13;;;17.40;44.40;;;;;;6204107;23;20056;-62
2021/04/02 14:00:09;;;;;;;20.92;13.35;;;17.30;42.90;;;;;;6197127;23;20012;-62
2021/04/02 14:02:53;;;;;;;20.40;12.95;;;17.20;43.40;;;;;;6195385;23;20251;-61
2021/04/02 14:05:37;;;;;;;20.85;13.52;;;17.20;43.80;;;;;;6195955;23;20055;-62
2021/04/02 14:08:23;;;;;;;19.02;12.80;;;17.20;43.50;;;;;;6194414;23;20020;-62